Aviation Digital Data Service (ADDS)

Output produced by METARs form (0721 UTC 29 November 2014)
found at http://aviationweather.gov/adds/metars/
 
KDAG 290650Z AUTO 26010KT 10SM CLR 13/M09 A2992 RMK AO2 SLP120 T01331094
KDAG 290520Z 2906/3006 25005KT P6SM SKC 
     FM291000 25010KT P6SM SCT250
       
KEDW 290658Z AUTO 19007KT 10SM CLR 10/M07 A2992 RMK AO2 SLP128 T00961071
KVCV 290655Z AUTO 17004KT 10SM CLR 11/M09 A2996 RMK AO2
KONT 290653Z 00000KT 10SM CLR 15/01 A2992 RMK AO2 SLP121 T01500011
KONT 290520Z 2906/3012 00000KT P6SM SKC 
     FM300400 VRB04KT P6SM SCT005 
     FM300900 VRB04KT 6SM BR BKN010
       
KNID 290656Z AUTO 22006KT 10SM CLR 14/M18 A2988 RMK AO2 SLP114 T01391178 $
TAF KNID 2823/2923 VRB05KT 9999 SKC QNH2988INS 
     BECMG 2913/2915 23010KT 9999 BKN220 QNH2990INS WND 200V330 
     BECMG 2920/2922 23017G25KT SCT120 BKN230 QNH2975INS T00/2913Z T24/2923Z LAST NO AMD AFT 2903/ NEXT 0115
       
KSNA 290653Z 00000KT 10SM CLR 15/06 A2989 RMK AO2 SLP121 T01500061
KSNA 290520Z 2906/3006 00000KT P6SM SKC 
     FM291000 15003KT 2SM BR SCT005 
     TEMPO 2910/2914 1SM BR BKN003 
     FM291500 16004KT 3SM BR BKN004 
     FM291700 16005KT P6SM SCT007 
     FM300200 16006KT P6SM BKN015
       
KSAN 290651Z 17005KT 1 1/4SM BR OVC004 16/14 A2993 RMK AO2 SLP134 T01560139
KSAN 290615Z 2906/3012 19005KT 1SM BR OVC004 
     TEMPO 2906/2910 1/2SM FG VV002 
     FM291400 17006KT 3SM BR SCT005 
     FM291700 18007KT P6SM SCT007 
     FM300200 18007KT P6SM BKN015
       
KNXP 290656Z AUTO 34004KT 10SM CLR 09/M09 A3001 RMK AO2 SLP139 T00941089 $
TAF KNXP 2903/3003 VRB06KT 9999 SKC QNH2994INS 
     BECMG 2918/2920 18008KT 9999 FEW200 QNH2991INS AUTOMATED SENSOR METWATCH 2903 TIL 0115 T07/2912Z T24/2922Z
       
KPSP 290653Z 35003KT 10SM CLR 16/M02 A2990 RMK AO2 SLP123 T01611022
KPSP 290520Z 2906/3006 31005KT P6SM SKC
       
KLAX 290705Z 31003KT 1/2SM R25R/0800VP6000FT FG VV002 14/14 A2990 RMK AO2 TWR VIS 10 $
KLAX 290655Z 2907/3012 VRB03KT 1/2SM FG VV001 
     FM290900 10006KT 3SM BR OVC005 
     FM291600 15006KT P6SM BKN012 
     FM291900 22008KT P6SM SCT250 
     FM300000 19008KT 5SM BR OVC015 
     FM300800 11007KT P6SM OVC025
       
KCNO 290653Z 35003KT 7SM CLR 08/04 A2993 RMK AO2 SLP131 T00780039
KSMO 290651Z AUTO 00000KT 10SM CLR 14/03 A2990 RMK AO2 SLP123 T01390028
KLGB 290702Z 00000KT 5SM BR CLR 13/12 A2989 RMK AO2 T01330122
KLGB 290533Z 2906/3006 VRB03KT P6SM SKC 
     FM290900 VRB03KT 4SM BR OVC007 
     FM291600 VRB03KT P6SM BKN010 
     FM291800 19008KT P6SM SCT200 
     FM300100 17007KT 5SM BR OVC015
       
KVNY 290651Z AUTO 00000KT 10SM CLR 12/01 A2991 RMK AO2 SLP121 T01170011
KVNY 290533Z 2906/3006 VRB03KT P6SM SKC 
     FM292000 14007KT P6SM SCT200 
     FM300400 12007KT P6SM OVC015
       
KBUR 290653Z 00000KT 10SM CLR 13/01 A2990 RMK AO2 SLP115 T01330011
KBUR 290533Z 2906/3006 VRB03KT P6SM SKC 
     FM291900 17007KT P6SM SCT200 
     FM300400 15007KT P6SM OVC015
       
KBFL 290654Z AUTO 14004KT 6SM HZ CLR 12/03 A2987 RMK AO2 SLP112 T01170033
KBFL 290545Z 2906/3006 08006KT 6SM HZ SKC 
     FM290800 VRB04KT 5SM HZ BKN200
       
KPMD 290653Z AUTO 23003KT 10SM CLR 14/M06 A2994 RMK AO2 SLP126 T01441056
KPMD 290533Z 2906/3006 VRB03KT P6SM SKC 
     FM292000 25012KT P6SM SCT200
       
KOXR 290651Z AUTO 07004KT 10SM CLR 14/03 A2988 RMK AO2 SLP119 T01390033
KOXR 290533Z 2906/3006 VRB03KT P6SM SKC 
     FM291100 VRB03KT 4SM BR OVC005 
     FM291600 VRB03KT P6SM OVC008 
     FM292000 23007KT P6SM SCT200 
     FM300000 19006KT P6SM OVC020
       
KWJF 290656Z 00000KT 10SM CLR 06/M09 A2994 RMK AO2 SLP140 T00611089
KWJF 290533Z 2906/3006 VRB03KT P6SM SKC 
     FM292000 25012KT P6SM SCT200
       
KCMA 290655Z 04003KT 10SM CLR 12/06 A2988 RMK AO2 SLP127 T01170061
KFAT 290653Z 07004KT 9SM CLR 12/06 A2988 RMK AO2 SLP116 T01170061
KFAT 290545Z 2906/3006 00000KT 6SM HZ SKC 
     TEMPO 2912/2916 2SM BR
       
KEED 290656Z AUTO 26007KT 10SM CLR 12/M07 A2990 RMK AO2 SLP109 T01221072
KEED 290520Z 2906/3006 26004KT P6SM SKC 
     FM291500 VRB05KT P6SM SCT250 
     FM292100 19010KT P6SM BKN250 
     FM300300 23007KT P6SM BKN250
       
KLSV 290658Z AUTO 07004KT 10SM CLR 07/M08 A2989 RMK AO2 SLP118 T00651084
TAF KLSV 2901/3007 VRB06KT 9999 FEW250 QNH2988INS 
     BECMG 2919/2920 10012G18KT 9999 FEW250 QNH2982INS 
     BECMG 3002/3003 VRB06KT 9999 FEW250 QNH2982INS TX20/2922Z TN01/2913Z
       
KLAS 290656Z 22005KT 10SM CLR 09/M05 A2985 RMK AO2 SLP103 T00941050
KLAS 290520Z 2906/3006 21006KT P6SM SKC 
     FM291700 18004KT P6SM SCT250 
     FM292100 21010KT P6SM BKN250 
     FM300300 20012G20KT P6SM BKN250
       
KHII 290715Z AUTO 00000KT 10SM CLR 14/M07 A2989 RMK AO2
KIFP 290715Z AUTO 00000KT 10SM CLR 14/M05 A2991 RMK AO2